Impacts METAR Board
IDs:

KASD - Slidell Arpt, LA, US

Updated at: 2200 UTC 23 May 2018
Potential Impact None Slight Moderate High
Time 23/10Z 23/11Z 23/12Z 23/13Z 23/14Z 23/15Z 23/16Z 23/17Z 23/18Z 23/19Z 23/20Z 23/21Z 23/22Z
Temp70 68 71 76 82 85 86 87 80 77 84 87 88
Dewpt68 66 67 71 72 69 70 68 67 71 66 66 63
Altim30.01 30.03 30.04 30.06 30.07 30.08 30.08 30.07 30.06 30.08 30.04 30.01 30.00
VIS10 10 10 10 10 10 10 10 10 10 10 10 10
CIG-- -- -- -- -- -- -- 42 45 65 -- -- --
CoverCLRCLRCLRCLRCLRFEWCLROVCOVCOVCCLRCLRCLR
FltCatVFRVFRVFRVFRVFRVFRVFRVFRVFRVFRVFRVFRVFR
WX----------------TSTS------
WDir00010080350015050800120
WSpd0 0 0 4 0 4 6 0 15 5 6 3 3
WGst-- -- -- -- -- -- -- -- 21 -- -- -- --
Raw hourly METARs
KASD 230953Z AUTO 00000KT 10SM CLR 21/20 A3001 RMK AO2 SLP162 T02110200
KASD 231053Z AUTO 00000KT 10SM CLR 20/19 A3003 RMK AO2 SLP167 T02000189
KASD 231153Z AUTO 00000KT 10SM CLR 22/19 A3004 RMK AO2 SLP172 70056 T02170194 10222 20200 53014
KASD 231253Z AUTO 01004KT 10SM CLR 24/22 A3006 RMK AO2 SLP177 T02440217
KASD 231353Z AUTO 00000KT 10SM CLR 28/22 A3007 RMK AO2 SLP181 T02780222
KASD 231453Z AUTO 08004KT 10SM FEW030 29/21 A3008 RMK AO2 SLP184 T02940206 51012
KASD 231553Z AUTO 35006KT 10SM CLR 30/21 A3008 RMK AO2 SLP184 T03000211
KASD 231653Z AUTO 00000KT 10SM BKN042 OVC050 31/20 A3007 RMK AO2 SLP181 T03060200
KASD 231753Z AUTO 15015G21KT 10SM TS BKN045 OVC060 27/19 A3006 RMK AO2 LTG DSNT NE AND E TSB33 SLP180 T02670194 10311 20217 58004
KASD 231853Z AUTO 05005KT 10SM TS BKN065 BKN080 OVC100 25/22 A3008 RMK AO2 LTG DSNT ALQDS RAB1754E40 TSE34B44 SLP185 P0008 T02500217
KASD 231953Z AUTO 08006KT 10SM CLR 29/19 A3004 RMK AO2 LTG DSNT ALQDS TSE05 SLP171 T02890189
KASD 232053Z AUTO VRB03KT 10SM CLR 31/19 A3001 RMK AO2 SLP163 60008 T03060189 58022
KASD 232153Z AUTO 12003KT 10SM CLR 31/17 A3000 RMK AO2 SLP159 T03110172



Page loaded:  22:24 UTC  |   03:24 PM Pacific  |   04:24 PM Mountain  |   05:24 PM Central  |   06:24 PM Eastern

 

ADVISORIES

FORECASTS

FORECASTS

OBSERVATIONS

USER TOOLS

ABOUT US